Godoy Moreira, Brazil
Current Conditions -  °F | °C
As of 12:00 AM on Thursday 27 Nov 2014 (Local Time) from SBMG Reporting Station
Clear Clear  
Wind Chill: 79°   Ceiling: Unl
Heat Index: 81°   Visibility: 6mi
Dew Point: 70°   Wind: 1mph
Humidity: 74%   Direction: 340°NNW
Pressure: 29.85"   Gusts: NA
Location:  24.18°S, 51.92°W
Report Text: SBMG 270200Z 34001KT CAVOK 26/21 Q1011
Loading
Personal Weather Stations






























Interactive Weather Map New forecast layout! Learn more

10-Day Weather Forecast

Advertisements
Track Severe Weather on mobile